Track Шигаев Анатолий

Time Latitude Longitude Accuracy (66% radius in meters) Altitude (meters) Speed (km/hour) Bearing (degrees) Battery (%) GPS flag
07:20:15 57.204025 60.118209 0 0 0 0 1 delete
07:20:14 57.204024 60.118204 0 0 0 0 1 delete
07:20:13 57.204023 60.118194 0 0 0 0 1 delete
07:20:12 57.204023 60.118182 0 0 0 0 1 delete
07:20:11 57.204024 60.118173 0 0 0 0 1 delete
07:20:10 57.204029 60.118165 0 0 0 0 1 delete
07:20:09 57.204040 60.118150 0 0 0 0 1 delete
07:20:08 57.204060 60.118127 0 0 0 0 1 delete
07:20:07 57.204082 60.118100 0 0 0 0 1 delete
07:20:06 57.204103 60.118067 0 0 0 0 1 delete
07:20:05 57.204121 60.118032 0 0 0 0 1 delete
07:20:04 57.204141 60.117997 0 0 0 0 1 delete
07:20:03 57.204166 60.117966 0 0 0 0 1 delete
07:20:02 57.204189 60.117938 0 0 0 0 1 delete
07:20:01 57.204209 60.117912 0 0 0 0 1 delete
07:20:00 57.204225 60.117885 0 0 0 0 1 delete
07:19:59 57.204243 60.117855 0 0 0 0 1 delete
07:19:58 57.204262 60.117821 0 0 0 0 1 delete
07:19:57 57.204282 60.117787 0 0 0 0 1 delete
07:19:56 57.204302 60.117755 0 0 0 0 1 delete
07:19:55 57.204321 60.117726 0 0 0 0 1 delete
07:19:54 57.204341 60.117695 0 0 0 0 1 delete
07:19:53 57.204365 60.117660 0 0 0 0 1 delete
07:19:52 57.204393 60.117629 0 0 0 0 1 delete
07:19:51 57.204420 60.117598 0 0 0 0 1 delete
07:19:50 57.204445 60.117573 0 0 0 0 1 delete
07:19:49 57.204474 60.117546 0 0 0 0 1 delete
07:19:48 57.204508 60.117525 0 0 0 0 1 delete
07:19:47 57.204544 60.117508 0 0 0 0 1 delete
07:19:46 57.204582 60.117495 0 0 0 0 1 delete
07:19:45 57.204623 60.117479 0 0 0 0 1 delete
07:19:44 57.204668 60.117469 0 0 0 0 1 delete
07:19:43 57.204712 60.117461 0 0 0 0 1 delete
07:19:42 57.204753 60.117462 0 0 0 0 1 delete
07:19:41 57.204795 60.117463 0 0 0 0 1 delete
07:19:40 57.204837 60.117472 0 0 0 0 1 delete
07:19:39 57.204880 60.117482 0 0 0 0 1 delete
07:19:38 57.204921 60.117498 0 0 0 0 1 delete
07:19:37 57.204962 60.117509 0 0 0 0 1 delete
07:19:36 57.205000 60.117529 0 0 0 0 1 delete
07:19:35 57.205042 60.117545 0 0 0 0 1 delete
07:19:34 57.205081 60.117562 0 0 0 0 1 delete
07:19:33 57.205114 60.117571 0 0 0 0 1 delete
07:19:32 57.205137 60.117580 0 0 0 0 1 delete
07:19:31 57.205157 60.117587 0 0 0 0 1 delete
07:19:30 57.205176 60.117594 0 0 0 0 1 delete
07:19:29 57.205192 60.117601 0 0 0 0 1 delete
07:19:28 57.205204 60.117610 0 0 0 0 1 delete
07:19:27 57.205212 60.117620 0 0 0 0 1 delete
07:19:26 57.205216 60.117628 0 0 0 0 1 delete